Aviosuperficie AS77

IT-0302 · Friuli Venezia Giulia, 意大利

罗盘
风向 的 风向 的 风向 到 风向 060°
风: 5 kt, 2 beaufort

添加一条跑道以查看侧风和逆风信息。

添置 跑道
0 1.000 2.000 3.000 4.000 5.000
METAR LIVT 041955Z AUTO 06005KT 030V090 //// 11/09 Q1018

METAR Aviosuperficie AS77 - IT-0302

Aviosuperficie AS77是,意大利中的小机场。 该领域的国际民航组织标志是IT-0302.

这份报告是针对2022年12月4日 20:55, 当地时间在Trieste进行的。

机场观察

风向为060°,速度为5 kt。 风向在030°和090°之间变化。

温度和风寒是11 °C。 露点为9 °C,相对湿度为88%。 海平面上的气压为1018 hPa (QNH)。

白天

今天,太阳从07:31升起,在16:22降落。 这适用于Aviosuperficie AS77,世界夏令时可能有所不同。 当地时间与世界标准时间之间的时差为+1 小时。 当前,没有夏令时有效。

公司介绍

我们没有关于这个机场的公司信息。

体会

到Vliegles.nl去找飞行课程,跳伞和其他飞行体验。 浏览页面,了解Aviosuperficie AS77附近所有可用的活动。 你也可以使用搜索功能来寻找你所在地附近的特定飞行课程、跳伞或其他飞行体验。

温度 & 天气

温度 11 °C
露点 9 °C
相对湿度 88%
Kp-index 0 (0-9)

白天

日出
07:28 (9:21)
中午
11:55
日落
16:21

小工具

你想在你的网站上有一个关于Aviosuperficie AS77的当前航空天气(METAR)的小部件吗?

显示HTML代码

我们和第三方通过cookies跟踪您在我们网站上的互联网行为。如果你继续,我们认为你同意我们的饼干政策